• Join FlightAware (Why Join?)
  • Login
  • US Flag 
06:43PM EDT


 

Airport Tracker/Info


-or-


 

Live Flight TrackerFlight Track Log ✈ AWE1454 ✈ 25-Apr-2013 ✈ KATL - KPHL

Flight Track Log - Related Links

Times and Time Zones

All times are in EDT time to prevent confusion due to time zone crossing. See the AWE1454 flight status page for this flight to view local times or setup timezone preferences in your user account.

Time Position Orientation Groundspeed Altitude Reporting Facility
EDT Latitude Longitude Course Direction KTS MPH feet Rate Location/Type
01:04PM 33.6328 -84.4778 58° Northeast 443 510 2,500  Level Atlanta Center
01:05PM 33.6167 -84.5333 251° West 228 262 3,800 2,340 Climbing Atlanta TRACON
01:06PM 33.8671 -84.1293 54° Northeast  Level Estimated
01:06PM 33.5500 -84.5833 212° Southwest 288 331 7,100  Level Atlanta TRACON
01:07PM 33.8671 -83.9933 90° East  Level FlightAware Approximate
01:08PM 33.8669 -83.8574 90° East  Level FlightAware Approximate
01:08PM 33.4575 -84.4572 131° Southeast 346 398 11,600  Level Atlanta Center
01:09PM 33.9446 -83.7588 53° Northeast  Level Estimated
01:09PM 33.4578 -84.3278 90° East 369 425 14,200  Level Atlanta Center
01:10PM 34.0047 -83.6435 58° Northeast  Level FlightAware Approximate
01:10PM 33.5247 -84.2306 50° Northeast 346 398 16,200  Level Atlanta Center
01:11PM 33.6250 -84.1661 28° Northeast 360 414 18,000 1,860 Climbing Atlanta Center
01:12PM 33.7253 -84.0961 30° Northeast 400 460 20,000 1,860 Climbing Atlanta Center
01:13PM 33.7964 -83.9689 56° Northeast 430 495 21,800 1,860 Climbing Atlanta Center
01:14PM 33.8672 -83.8386 57° Northeast 456 525 23,800 1,740 Climbing Atlanta Center
01:15PM 33.9439 -83.6908 58° Northeast 469 540 25,300 1,440 Climbing Atlanta Center
01:16PM 34.0272 -83.5625 52° Northeast 478 550 26,700 1,260 Climbing Atlanta Center
01:17PM 34.1100 -83.4317 53° Northeast 490 564 27,900 960 Climbing Atlanta Center
01:18PM 34.1947 -83.2981 53° Northeast 485 558 28,700 900 Climbing Atlanta Center
01:19PM 34.2794 -83.1614 53° Northeast 496 571 29,800 900 Climbing Atlanta Center
01:20PM 34.3661 -83.0197 53° Northeast 515 593 30,500 840 Climbing Atlanta Center
01:21PM 34.4544 -82.8775 53° Northeast 525 604 31,500 960 Climbing Atlanta Center
01:22PM 34.5428 -82.7350 53° Northeast 530 610 32,500 960 Climbing Atlanta Center
01:23PM 34.6289 -82.5897 54° Northeast 525 604 33,500 900 Climbing Atlanta Center
01:24PM 34.7147 -82.4492 53° Northeast 525 604 34,400 900 Climbing Atlanta Center
01:25PM 34.8025 -82.3086 53° Northeast 525 604 35,300 780 Climbing Atlanta Center
01:26PM 34.8881 -82.1675 54° Northeast 525 604 36,000 300 Climbing Atlanta Center
01:27PM 34.9778 -82.0261 52° Northeast 525 604 36,000  Level Atlanta Center
01:28PM 35.0628 -81.8717 56° Northeast 531 611 36,000  Level Atlanta Center
01:29PM 35.1356 -81.7378 56° Northeast 531 611 36,000 420 Level Atlanta Center
01:30PM 35.2139 -81.5881 57° Northeast 536 617 36,900 480 Climbing Atlanta Center
01:31PM 35.2922 -81.4383 57° Northeast 529 609 37,000  Climbing Atlanta Center
01:32PM 35.3722 -81.2856 57° Northeast 533 613 37,000  Level Atlanta Center
01:33PM 35.4542 -81.1247 58° Northeast 533 613 37,000  Level Atlanta Center
01:34PM 35.5339 -80.9686 58° Northeast 538 619 37,000  Level Atlanta Center
01:35PM 35.6153 -80.8150 57° Northeast 538 619 37,000  Level Atlanta Center
01:38PM 35.8119 -80.4306 58° Northeast 541 623 37,000  Level Washington Center
01:39PM 35.8842 -80.2914 57° Northeast 536 617 37,000  Level Washington Center
01:40PM 35.9656 -80.1319 58° Northeast 541 623 37,000  Level Washington Center
01:41PM 36.0553 -79.9675 56° Northeast 535 616 37,000  Level Washington Center
01:42PM 36.1400 -79.8178 55° Northeast 535 616 37,000  Level Washington Center
01:43PM 36.2178 -79.6753 56° Northeast 548 631 37,000  Level Washington Center
01:44PM 36.3089 -79.5100 56° Northeast 534 615 37,000  Level Washington Center
01:45PM 36.3842 -79.3744 55° Northeast 534 615 37,000  Level Washington Center
01:46PM 36.4703 -79.2208 55° Northeast 534 615 37,000  Level Washington Center
01:47PM 36.5650 -79.0597 54° Northeast 529 609 37,000  Level Washington Center
01:49PM 36.7319 -78.7511 56° Northeast 536 617 37,000  Level Washington Center
01:50PM 36.8172 -78.5964 55° Northeast 541 623 37,000  Level Washington Center
01:51PM 36.8936 -78.4592 55° Northeast 541 623 37,000 -540 Level Washington Center
01:52PM 37.0011 -78.3331 43° Northeast 541 623 36,000 -1,020 Descending Washington Center
01:53PM 37.1139 -78.2250 37° Northeast 511 588 35,000 -1,020 Descending Washington Center
01:54PM 37.2289 -78.1169 37° Northeast 511 588 34,000 -1,020 Descending Washington Center
01:55PM 37.3458 -78.0083 36° Northeast 516 594 33,000 -1,020 Descending Washington Center
01:56PM 37.4628 -77.8994 36° Northeast 516 594 32,000 -1,020 Descending Washington Center
01:57PM 37.5797 -77.7878 37° Northeast 516 594 31,000 -540 Descending Washington Center
01:58PM 37.6964 -77.6783 37° Northeast 516 594 31,000  Level Washington Center
01:59PM 37.8128 -77.5686 37° Northeast 516 594 31,000  Level Washington Center
02:00PM 37.9314 -77.4611 36° Northeast 516 594 31,000  Level Washington Center
02:01PM 38.0497 -77.3558 35° Northeast 521 600 31,000  Level Washington Center
02:02PM 38.1703 -77.2478 35° Northeast 521 600 31,000 -420 Level Washington Center
02:03PM 38.2883 -77.1314 38° Northeast 526 605 30,200 -1,860 Descending Washington Center
02:04PM 38.4067 -77.0250 35° Northeast 526 605 27,300 -2,820 Descending Washington Center
02:05PM 38.5203 -76.9158 37° Northeast 521 600 24,600 -1,680 Descending Washington Center
02:06PM 38.6319 -76.8142 35° Northeast 508 585 24,000 -900 Descending Washington Center
02:07PM 38.7189 -76.6692 52° Northeast 495 570 22,900 -1,680 Descending Washington Center
02:08PM 38.7556 -76.5022 74° East 482 555 20,700 -2,100 Descending Washington Center
02:09PM 38.7881 -76.3375 76° East 468 539 18,700 -2,160 Descending Washington Center
02:10PM 38.8264 -76.1592 75° East 462 532 16,400 -1,860 Descending Washington Center
02:11PM 38.8583 -76.0103 75° East 450 518 15,000 -720 Descending Washington Center
02:12PM 38.8964 -75.8611 72° East 438 504 15,000  Level Washington Center
02:13PM 38.9819 -75.7597 43° Northeast 416 479 15,000 -960 Level Washington Center
02:14PM 39.1306 -75.6697 25° Northeast 367 422 12,700 -1,500 Descending FAA TRACON SMA TRACON (SMA)
02:15PM 39.1606 -75.6664 North 353 406 12,200 -1,680 Descending FAA TRACON SMA TRACON (SMA)
02:15PM 39.2231 -75.6603 North 316 364 11,000 -1,260 Descending FAA TRACON SMA TRACON (SMA)
02:17PM 39.3500 -75.6667 358° North 239 275 9,200 -1,140 Descending Philadelphia TRACON
02:18PM 39.4167 -75.6667 360° North 258 297 8,000 -600 Descending Philadelphia TRACON
02:19PM 39.4333 -75.5667 78° East 262 302 8,000  Level Philadelphia TRACON
02:20PM 39.4500 -75.4833 75° East 260 299 8,000  Level Philadelphia TRACON
02:21PM 39.4500 -75.3833 90° East 260 299 8,000  Level Philadelphia TRACON
02:22PM 39.4667 -75.3000 75° East 261 300 8,000  Level Philadelphia TRACON
02:23PM 39.5167 -75.2333 46° Northeast 253 291 8,000  Level Philadelphia TRACON
02:24PM 39.5833 -75.1667 38° Northeast 255 293 8,000  Level Philadelphia TRACON
02:25PM 39.6333 -75.1167 38° Northeast 255 293 8,000 -540 Level Philadelphia TRACON
02:26PM 39.6833 -75.0667 38° Northeast 232 267 7,000 -540 Descending Philadelphia TRACON
02:27PM 39.7500 -75.0833 349° North 218 251 7,000 -540 Level Philadelphia TRACON
02:28PM 39.8000 -75.0667 14° North 213 245 6,000 -540 Descending Philadelphia TRACON
02:29PM 39.8167 -75.0000 72° East 216 249 6,000 -660 Level Philadelphia TRACON
02:30PM 39.8500 -74.9333 57° Northeast 200 230 4,700 -1,020 Descending Philadelphia TRACON
02:31PM 39.9000 -74.9500 346° North 192 221 4,000 -900 Descending Philadelphia TRACON
02:32PM 39.9167 -75.0000 294° West 198 228 3,000 -600 Descending Philadelphia TRACON
02:33PM 39.9167 -75.0500 270° West 179 206 2,800 -600 Descending Philadelphia TRACON
02:34PM 39.9000 -75.1167 252° West 173 199 1,800 -1,020 Descending Philadelphia TRACON